Time;durP1;ratioP1;P1;durP2;ratioP2;P2;SDS_P1;SDS_P2;PMS_P1;PMS_P2;Temp;Humidity;BMP_temperature;BMP_pressure;BME280_temperature;BME280_humidity;BME280_pressure;Samples;Min_cycle;Max_cycle;Signal;HPM_P1;HPM_P2
2023/08/08 00:04:01;;;;;;;;;;;10.70;99.90;;;;;;21074450;28;20297;-75
2023/08/08 00:14:02;;;;;;;;;;;10.70;99.90;;;;;;21082637;28;19923;-75
2023/08/08 00:24:03;;;;;;;;;;;10.70;99.90;;;;;;21084666;28;19916;-75
2023/08/08 00:34:03;;;;;;;;;;;10.80;99.90;;;;;;21090453;28;19919;-74
2023/08/08 00:44:04;;;;;;;;;;;10.40;99.90;;;;;;21086787;28;20007;-74
2023/08/08 00:54:05;;;;;;;;;;;10.60;99.90;;;;;;21090654;28;19919;-74
2023/08/08 01:04:06;;;;;;;;;;;10.70;99.90;;;;;;21087506;28;19943;-75
2023/08/08 01:14:08;;;;;;;;;;;10.80;99.90;;;;;;21085980;28;20285;-74
2023/08/08 01:24:12;;;;;;;;;;;10.50;99.90;;;;;;21093339;28;20370;-75
2023/08/08 01:34:12;;;;;;;;;;;10.60;99.90;;;;;;21085816;28;19920;-75
2023/08/08 01:44:14;;;;;;;;;;;10.60;99.90;;;;;;21085516;28;19916;-75
2023/08/08 01:54:14;;;;;;;;;;;9.90;99.90;;;;;;21083234;28;19911;-75
2023/08/08 02:04:15;;;;;;;;;;;10.10;99.90;;;;;;21083655;28;19923;-75
2023/08/08 02:14:16;;;;;;;;;;;10.10;99.90;;;;;;21083805;28;20301;-74
2023/08/08 02:24:16;;;;;;;;;;;10.20;99.90;;;;;;21080116;28;19928;-74
2023/08/08 02:34:17;;;;;;;;;;;10.20;99.90;;;;;;21082887;28;19916;-75
2023/08/08 02:44:19;;;;;;;;;;;10.20;99.90;;;;;;21080300;28;19916;-74
2023/08/08 02:54:20;;;;;;;;;;;10.10;99.90;;;;;;21077735;28;20412;-74
2023/08/08 03:04:22;;;;;;;;;;;10.00;99.90;;;;;;21077071;28;19916;-75
2023/08/08 03:14:23;;;;;;;;;;;10.00;99.90;;;;;;21079188;28;19912;-75
2023/08/08 03:24:23;;;;;;;;;;;10.00;99.90;;;;;;21073882;28;19916;-74
2023/08/08 03:34:24;;;;;;;;;;;9.30;99.90;;;;;;21084811;28;19965;-74
2023/08/08 03:44:25;;;;;;;;;;;9.10;99.90;;;;;;21086513;28;19916;-74
2023/08/08 03:54:26;;;;;;;;;;;9.50;99.90;;;;;;21074579;28;19912;-74
2023/08/08 04:04:27;;;;;;;;;;;9.70;99.90;;;;;;21073354;28;20027;-74
2023/08/08 04:14:28;;;;;;;;;;;9.70;99.90;;;;;;21071068;28;19912;-75
2023/08/08 04:24:29;;;;;;;;;;;9.60;99.90;;;;;;21055543;28;19946;-75
2023/08/08 04:34:29;;;;;;;;;;;9.70;99.90;;;;;;21072158;28;19952;-74
2023/08/08 04:44:30;;;;;;;;;;;9.80;99.90;;;;;;21073396;28;19916;-75
2023/08/08 04:54:31;;;;;;;;;;;10.00;99.90;;;;;;21072435;28;19912;-75
2023/08/08 05:04:31;;;;;;;;;;;10.00;99.90;;;;;;21080518;28;19922;-75
2023/08/08 05:14:32;;;;;;;;;;;10.20;99.90;;;;;;21084677;28;19947;-75
2023/08/08 05:24:33;;;;;;;;;;;10.40;99.90;;;;;;21021808;28;19916;-75
2023/08/08 05:34:34;;;;;;;;;;;10.70;99.90;;;;;;21037908;28;19912;-75
2023/08/08 05:44:34;;;;;;;;;;;11.30;99.90;;;;;;21030309;28;19932;-76
2023/08/08 05:54:35;;;;;;;;;;;11.90;99.90;;;;;;21055328;28;19958;-75
2023/08/08 06:04:35;;;;;;;;;;;12.10;99.90;;;;;;21036185;28;20401;-75
2023/08/08 06:14:36;;;;;;;;;;;12.10;99.90;;;;;;21005607;28;19912;-75
2023/08/08 06:24:37;;;;;;;;;;;12.10;99.90;;;;;;21075114;28;19927;-75
2023/08/08 06:34:37;;;;;;;;;;;12.80;99.90;;;;;;21060138;28;20001;-75
2023/08/08 06:44:42;;;;;;;;;;;13.40;99.90;;;;;;21028684;28;19962;-75
2023/08/08 06:54:43;;;;;;;;;;;13.90;99.90;;;;;;21021002;28;19980;-75
2023/08/08 07:04:44;;;;;;;;;;;14.10;99.90;;;;;;21012106;28;19960;-75
2023/08/08 07:14:44;;;;;;;;;;;14.20;99.90;;;;;;21064104;28;19919;-75
2023/08/08 07:24:47;;;;;;;;;;;15.00;99.90;;;;;;21052600;28;21374;-76
2023/08/08 07:34:47;;;;;;;;;;;14.90;99.90;;;;;;21002542;28;19959;-75
2023/08/08 07:44:48;;;;;;;;;;;15.20;99.90;;;;;;21055910;28;19923;-75
2023/08/08 07:54:49;;;;;;;;;;;15.30;99.90;;;;;;21076209;28;20382;-75
2023/08/08 08:04:49;;;;;;;;;;;15.90;99.90;;;;;;21015553;28;20305;-75
2023/08/08 08:14:50;;;;;;;;;;;16.80;99.90;;;;;;21016268;28;19952;-73
2023/08/08 08:24:50;;;;;;;;;;;17.80;99.90;;;;;;21033218;28;20285;-72
2023/08/08 08:34:51;;;;;;;;;;;18.20;99.90;;;;;;21021795;28;19912;-73
2023/08/08 08:44:53;;;;;;;;;;;18.00;99.90;;;;;;21023207;28;19920;-73
2023/08/08 08:54:53;;;;;;;;;;;17.80;99.90;;;;;;21041562;28;19919;-74
2023/08/08 09:04:55;;;;;;;;;;;19.00;99.90;;;;;;21027379;28;19916;-74
2023/08/08 09:14:59;;;;;;;;;;;19.80;99.90;;;;;;21048136;28;19912;-74
2023/08/08 09:25:01;;;;;;;;;;;20.70;99.90;;;;;;21028128;28;19939;-74
2023/08/08 09:35:02;;;;;;;;;;;20.50;99.90;;;;;;21026711;28;20029;-74
2023/08/08 09:45:03;;;;;;;;;;;21.30;99.90;;;;;;21040882;28;20010;-74
2023/08/08 09:55:04;;;;;;;;;;;20.60;99.90;;;;;;21042101;28;19999;-74
2023/08/08 10:05:05;;;;;;;;;;;20.70;99.90;;;;;;21030295;28;19916;-73
2023/08/08 10:15:15;;;;;;;;;;;20.90;99.90;;;;;;21030421;28;19957;-73
2023/08/08 10:25:26;;;;;;;;;;;21.70;99.90;;;;;;21030524;28;19924;-74
2023/08/08 10:35:34;;;;;;;;;;;22.60;99.90;;;;;;21037837;28;19919;-75
2023/08/08 10:45:36;;;;;;;;;;;22.90;99.90;;;;;;21059702;28;19923;-76
2023/08/08 10:55:36;;;;;;;;;;;22.30;99.90;;;;;;21033736;28;19923;-76
2023/08/08 11:05:37;;;;;;;;;;;22.50;99.90;;;;;;21032748;28;19919;-76
2023/08/08 11:15:38;;;;;;;;;;;23.50;99.30;;;;;;21020560;28;19959;-76
2023/08/08 11:25:40;;;;;;;;;;;22.50;97.70;;;;;;21052834;28;19923;-74
2023/08/08 11:35:46;;;;;;;;;;;22.10;99.20;;;;;;21067053;28;20372;-75
2023/08/08 11:45:49;;;;;;;;;;;23.20;99.00;;;;;;21074855;28;19920;-75
2023/08/08 11:55:49;;;;;;;;;;;23.20;96.90;;;;;;21074633;28;19923;-72
2023/08/08 12:05:50;;;;;;;;;;;23.60;98.00;;;;;;21013310;28;20279;-75
2023/08/08 12:15:52;;;;;;;;;;;22.60;98.90;;;;;;21032916;28;20108;-75
2023/08/08 12:25:53;;;;;;;;;;;22.40;99.90;;;;;;21035062;28;19923;-74
2023/08/08 12:35:54;;;;;;;;;;;22.60;99.90;;;;;;21087234;28;20003;-73
2023/08/08 12:45:54;;;;;;;;;;;22.90;99.50;;;;;;21092319;28;19999;-73
2023/08/08 12:55:55;;;;;;;;;;;22.60;99.90;;;;;;21088581;28;19912;-74
2023/08/08 13:05:56;;;;;;;;;;;22.80;99.20;;;;;;21088384;28;20326;-73
2023/08/08 13:15:56;;;;;;;;;;;22.60;99.90;;;;;;21059384;28;19912;-73
2023/08/08 13:25:57;;;;;;;;;;;22.40;99.50;;;;;;21086013;28;20441;-73
2023/08/08 13:35:58;;;;;;;;;;;23.40;97.20;;;;;;21055007;28;20378;-75
2023/08/08 13:46:00;;;;;;;;;;;23.30;98.30;;;;;;21037782;28;19970;-77
2023/08/08 13:56:00;;;;;;;;;;;23.20;98.50;;;;;;21045745;28;19912;-75
2023/08/08 14:06:01;;;;;;;;;;;23.60;98.20;;;;;;21037152;28;19916;-74
2023/08/08 14:16:01;;;;;;;;;;;23.90;95.90;;;;;;21064714;28;19918;-75
2023/08/08 14:26:02;;;;;;;;;;;23.40;96.80;;;;;;21080772;28;19916;-74
2023/08/08 14:36:03;;;;;;;;;;;23.70;95.10;;;;;;21014490;28;20290;-74
2023/08/08 14:46:04;;;;;;;;;;;24.20;95.60;;;;;;20996247;28;20294;-74
2023/08/08 14:56:04;;;;;;;;;;;23.90;94.80;;;;;;21059953;28;19995;-74
2023/08/08 15:06:05;;;;;;;;;;;23.80;96.30;;;;;;21079168;28;19916;-74
2023/08/08 15:16:06;;;;;;;;;;;24.00;96.00;;;;;;21078023;28;19912;-74
2023/08/08 15:26:06;;;;;;;;;;;23.90;95.80;;;;;;21047402;28;19915;-74
2023/08/08 15:36:07;;;;;;;;;;;23.10;95.30;;;;;;21034323;28;19918;-74
2023/08/08 15:46:08;;;;;;;;;;;22.70;97.10;;;;;;21059020;28;19970;-74
2023/08/08 15:56:08;;;;;;;;;;;23.30;97.30;;;;;;21031752;28;19923;-74
2023/08/08 16:06:09;;;;;;;;;;;22.70;98.70;;;;;;21031459;28;19920;-75
2023/08/08 16:16:10;;;;;;;;;;;23.00;97.40;;;;;;21039844;28;19999;-75
2023/08/08 16:26:10;;;;;;;;;;;22.80;97.90;;;;;;21041599;28;19948;-74
2023/08/08 16:36:11;;;;;;;;;;;22.50;98.20;;;;;;21036898;28;19991;-74
2023/08/08 16:46:12;;;;;;;;;;;22.20;99.60;;;;;;21029806;28;19916;-75
2023/08/08 16:56:13;;;;;;;;;;;22.10;98.90;;;;;;21032689;28;19912;-75
2023/08/08 17:06:14;;;;;;;;;;;22.20;98.70;;;;;;21074452;28;19916;-75
2023/08/08 17:16:15;;;;;;;;;;;22.30;99.30;;;;;;21009161;28;19919;-75
2023/08/08 17:26:16;;;;;;;;;;;22.00;99.10;;;;;;21004724;28;19964;-73
2023/08/08 17:36:16;;;;;;;;;;;21.60;99.60;;;;;;21054695;28;20305;-74
2023/08/08 17:46:17;;;;;;;;;;;21.60;99.90;;;;;;21085540;28;20412;-74
2023/08/08 17:56:18;;;;;;;;;;;21.30;99.90;;;;;;21096915;28;19916;-74
2023/08/08 18:06:19;;;;;;;;;;;21.10;99.90;;;;;;21083960;28;20351;-74
2023/08/08 18:16:19;;;;;;;;;;;20.90;99.90;;;;;;21082836;28;19913;-74
2023/08/08 18:26:20;;;;;;;;;;;20.50;99.90;;;;;;21075209;28;19916;-73
2023/08/08 18:36:21;;;;;;;;;;;20.20;99.90;;;;;;21058465;28;19916;-74
2023/08/08 18:46:22;;;;;;;;;;;19.90;99.90;;;;;;21000438;28;19954;-73
2023/08/08 18:56:23;;;;;;;;;;;19.20;99.90;;;;;;20994928;28;20007;-73
2023/08/08 19:06:24;;;;;;;;;;;18.40;99.90;;;;;;21078714;28;19916;-70
2023/08/08 19:16:24;;;;;;;;;;;17.40;99.90;;;;;;21078134;28;19959;-71
2023/08/08 19:26:25;;;;;;;;;;;17.20;99.90;;;;;;21076450;28;19916;-71
2023/08/08 19:36:26;;;;;;;;;;;16.90;99.90;;;;;;21076766;28;19995;-72
2023/08/08 19:46:26;;;;;;;;;;;16.80;99.90;;;;;;21076271;28;19962;-71
2023/08/08 19:56:27;;;;;;;;;;;16.50;99.90;;;;;;21036450;28;19912;-71
2023/08/08 20:06:28;;;;;;;;;;;16.30;99.90;;;;;;21074697;28;20388;-71
2023/08/08 20:16:30;;;;;;;;;;;16.00;99.90;;;;;;21074032;28;19948;-71
2023/08/08 20:26:30;;;;;;;;;;;15.80;99.90;;;;;;21073585;28;20155;-71
2023/08/08 20:36:31;;;;;;;;;;;15.80;99.90;;;;;;21055886;28;20328;-72
2023/08/08 20:46:32;;;;;;;;;;;16.10;99.90;;;;;;21084754;28;20277;-71
2023/08/08 20:56:33;;;;;;;;;;;15.70;99.90;;;;;;21074408;28;20267;-72
2023/08/08 21:06:33;;;;;;;;;;;15.60;99.90;;;;;;21042015;28;19977;-71
2023/08/08 21:16:34;;;;;;;;;;;15.70;99.90;;;;;;21045418;28;20283;-71
2023/08/08 21:26:35;;;;;;;;;;;15.50;99.90;;;;;;21054234;28;19939;-73
2023/08/08 21:36:35;;;;;;;;;;;14.90;99.90;;;;;;21090610;28;19912;-72
2023/08/08 21:46:36;;;;;;;;;;;15.10;99.90;;;;;;21084570;28;19965;-73
2023/08/08 21:56:37;;;;;;;;;;;15.00;99.90;;;;;;21083973;28;19912;-73
2023/08/08 22:06:37;;;;;;;;;;;15.10;99.90;;;;;;21083305;28;19923;-73
2023/08/08 22:16:41;;;;;;;;;;;15.00;99.90;;;;;;21082539;28;19912;-73
2023/08/08 22:26:42;;;;;;;;;;;15.00;99.90;;;;;;21081824;28;19924;-73
2023/08/08 22:36:43;;;;;;;;;;;14.90;99.90;;;;;;21080412;28;19942;-73
2023/08/08 22:46:43;;;;;;;;;;;14.80;99.90;;;;;;21079891;28;20028;-73
2023/08/08 22:56:44;;;;;;;;;;;14.60;99.90;;;;;;21080230;28;20329;-73
2023/08/08 23:06:45;;;;;;;;;;;14.70;99.90;;;;;;21077972;28;20439;-73
2023/08/08 23:16:45;;;;;;;;;;;14.80;99.90;;;;;;21078364;28;20263;-73
2023/08/08 23:26:46;;;;;;;;;;;14.60;99.90;;;;;;21049849;28;19944;-73
2023/08/08 23:36:46;;;;;;;;;;;14.70;99.90;;;;;;21104279;28;19946;-73
2023/08/08 23:46:47;;;;;;;;;;;14.70;99.90;;;;;;21106786;28;20256;-73
2023/08/08 23:56:48;;;;;;;;;;;14.70;99.90;;;;;;21102503;28;19933;-73
